sensor_id;sensor_type;location;lat;lon;timestamp;pressure;altitude;pressure_sealevel;temperature
25514;BMP180;48128;54.242;10.280;2023-06-14T00:02:18;101589.00;;;13.60
25514;BMP180;48128;54.242;10.280;2023-06-14T00:04:45;101579.00;;;13.60
25514;BMP180;48128;54.242;10.280;2023-06-14T00:07:14;101589.00;;;13.50
25514;BMP180;48128;54.242;10.280;2023-06-14T00:09:43;101587.00;;;13.50
25514;BMP180;48128;54.242;10.280;2023-06-14T00:12:10;101588.00;;;13.50
25514;BMP180;48128;54.242;10.280;2023-06-14T00:14:37;101581.00;;;13.50
25514;BMP180;48128;54.242;10.280;2023-06-14T00:17:04;101588.00;;;13.50
25514;BMP180;48128;54.242;10.280;2023-06-14T00:19:31;101592.00;;;13.50
25514;BMP180;48128;54.242;10.280;2023-06-14T00:22:01;101590.00;;;13.40
25514;BMP180;48128;54.242;10.280;2023-06-14T00:24:28;101596.00;;;13.40
25514;BMP180;48128;54.242;10.280;2023-06-14T00:26:55;101594.00;;;13.40
25514;BMP180;48128;54.242;10.280;2023-06-14T00:29:22;101597.00;;;13.40
25514;BMP180;48128;54.242;10.280;2023-06-14T00:31:49;101592.00;;;13.40
25514;BMP180;48128;54.242;10.280;2023-06-14T00:34:16;101588.00;;;13.40
25514;BMP180;48128;54.242;10.280;2023-06-14T00:36:43;101592.00;;;13.40
25514;BMP180;48128;54.242;10.280;2023-06-14T00:39:10;101599.00;;;13.40
25514;BMP180;48128;54.242;10.280;2023-06-14T00:41:37;101601.00;;;13.40
25514;BMP180;48128;54.242;10.280;2023-06-14T00:44:04;101602.00;;;13.30
25514;BMP180;48128;54.242;10.280;2023-06-14T00:46:31;101599.00;;;13.30
25514;BMP180;48128;54.242;10.280;2023-06-14T00:48:58;101599.00;;;13.30
25514;BMP180;48128;54.242;10.280;2023-06-14T00:51:27;101606.00;;;13.30
25514;BMP180;48128;54.242;10.280;2023-06-14T00:53:54;101597.00;;;13.30
25514;BMP180;48128;54.242;10.280;2023-06-14T00:56:21;101607.00;;;13.30
25514;BMP180;48128;54.242;10.280;2023-06-14T00:58:50;101608.00;;;13.30
25514;BMP180;48128;54.242;10.280;2023-06-14T01:01:17;101614.00;;;13.20
25514;BMP180;48128;54.242;10.280;2023-06-14T01:03:44;101624.00;;;13.30
25514;BMP180;48128;54.242;10.280;2023-06-14T01:06:20;101613.00;;;13.20
25514;BMP180;48128;54.242;10.280;2023-06-14T01:11:31;101615.00;;;13.20
25514;BMP180;48128;54.242;10.280;2023-06-14T01:14:00;101607.00;;;13.10
25514;BMP180;48128;54.242;10.280;2023-06-14T01:16:29;101612.00;;;13.10
25514;BMP180;48128;54.242;10.280;2023-06-14T01:18:58;101626.00;;;13.10
25514;BMP180;48128;54.242;10.280;2023-06-14T01:21:25;101622.00;;;13.10
25514;BMP180;48128;54.242;10.280;2023-06-14T01:23:52;101622.00;;;13.00
25514;BMP180;48128;54.242;10.280;2023-06-14T01:26:23;101620.00;;;13.00
25514;BMP180;48128;54.242;10.280;2023-06-14T01:28:52;101616.00;;;13.00
25514;BMP180;48128;54.242;10.280;2023-06-14T01:31:25;101622.00;;;13.00
25514;BMP180;48128;54.242;10.280;2023-06-14T01:33:52;101617.00;;;13.00
25514;BMP180;48128;54.242;10.280;2023-06-14T01:36:19;101626.00;;;12.90
25514;BMP180;48128;54.242;10.280;2023-06-14T01:38:47;101635.00;;;12.90
25514;BMP180;48128;54.242;10.280;2023-06-14T01:41:17;101629.00;;;12.80
25514;BMP180;48128;54.242;10.280;2023-06-14T01:43:45;101631.00;;;12.70
25514;BMP180;48128;54.242;10.280;2023-06-14T01:46:13;101637.00;;;12.70
25514;BMP180;48128;54.242;10.280;2023-06-14T01:48:41;101630.00;;;12.60
25514;BMP180;48128;54.242;10.280;2023-06-14T01:51:08;101620.00;;;12.80
25514;BMP180;48128;54.242;10.280;2023-06-14T01:53:35;101613.00;;;12.80
25514;BMP180;48128;54.242;10.280;2023-06-14T01:56:02;101617.00;;;12.80
25514;BMP180;48128;54.242;10.280;2023-06-14T01:58:30;101628.00;;;12.70
25514;BMP180;48128;54.242;10.280;2023-06-14T02:00:57;101606.00;;;12.70
25514;BMP180;48128;54.242;10.280;2023-06-14T02:03:24;101621.00;;;12.60
25514;BMP180;48128;54.242;10.280;2023-06-14T02:05:52;101628.00;;;12.60
25514;BMP180;48128;54.242;10.280;2023-06-14T02:08:19;101627.00;;;12.50
25514;BMP180;48128;54.242;10.280;2023-06-14T02:10:45;101628.00;;;12.40
25514;BMP180;48128;54.242;10.280;2023-06-14T02:13:13;101631.00;;;12.40
25514;BMP180;48128;54.242;10.280;2023-06-14T02:15:40;101621.00;;;12.40
25514;BMP180;48128;54.242;10.280;2023-06-14T02:18:10;101623.00;;;12.40
25514;BMP180;48128;54.242;10.280;2023-06-14T02:20:37;101619.00;;;12.30
25514;BMP180;48128;54.242;10.280;2023-06-14T02:23:04;101628.00;;;12.30
25514;BMP180;48128;54.242;10.280;2023-06-14T02:25:34;101624.00;;;12.30
25514;BMP180;48128;54.242;10.280;2023-06-14T02:28:01;101621.00;;;12.30
25514;BMP180;48128;54.242;10.280;2023-06-14T02:30:28;101618.00;;;12.30
25514;BMP180;48128;54.242;10.280;2023-06-14T02:32:55;101623.00;;;12.20
25514;BMP180;48128;54.242;10.280;2023-06-14T02:35:23;101623.00;;;12.20
25514;BMP180;48128;54.242;10.280;2023-06-14T02:37:53;101621.00;;;12.20
25514;BMP180;48128;54.242;10.280;2023-06-14T02:40:20;101620.00;;;12.20
25514;BMP180;48128;54.242;10.280;2023-06-14T02:42:47;101620.00;;;12.20
25514;BMP180;48128;54.242;10.280;2023-06-14T02:45:14;101625.00;;;12.10
25514;BMP180;48128;54.242;10.280;2023-06-14T02:47:41;101629.00;;;12.10
25514;BMP180;48128;54.242;10.280;2023-06-14T02:50:08;101629.00;;;12.10
25514;BMP180;48128;54.242;10.280;2023-06-14T02:52:35;101617.00;;;12.10
25514;BMP180;48128;54.242;10.280;2023-06-14T02:55:02;101628.00;;;12.10
25514;BMP180;48128;54.242;10.280;2023-06-14T02:57:29;101628.00;;;12.10
25514;BMP180;48128;54.242;10.280;2023-06-14T02:59:56;101623.00;;;12.10
25514;BMP180;48128;54.242;10.280;2023-06-14T03:02:23;101630.00;;;12.10
25514;BMP180;48128;54.242;10.280;2023-06-14T03:04:49;101625.00;;;12.00
25514;BMP180;48128;54.242;10.280;2023-06-14T03:07:17;101628.00;;;12.00
25514;BMP180;48128;54.242;10.280;2023-06-14T03:09:48;101628.00;;;11.90
25514;BMP180;48128;54.242;10.280;2023-06-14T03:12:15;101622.00;;;11.90
25514;BMP180;48128;54.242;10.280;2023-06-14T03:14:42;101626.00;;;12.00
25514;BMP180;48128;54.242;10.280;2023-06-14T03:17:09;101632.00;;;11.90
25514;BMP180;48128;54.242;10.280;2023-06-14T03:19:37;101633.00;;;11.90
25514;BMP180;48128;54.242;10.280;2023-06-14T03:22:04;101622.00;;;11.90
25514;BMP180;48128;54.242;10.280;2023-06-14T03:24:31;101623.00;;;11.90
25514;BMP180;48128;54.242;10.280;2023-06-14T03:27:03;101631.00;;;11.90
25514;BMP180;48128;54.242;10.280;2023-06-14T03:29:30;101625.00;;;11.90
25514;BMP180;48128;54.242;10.280;2023-06-14T03:32:02;101626.00;;;11.90
25514;BMP180;48128;54.242;10.280;2023-06-14T03:34:29;101633.00;;;11.90
25514;BMP180;48128;54.242;10.280;2023-06-14T03:36:57;101633.00;;;11.90
25514;BMP180;48128;54.242;10.280;2023-06-14T03:39:23;101629.00;;;11.90
25514;BMP180;48128;54.242;10.280;2023-06-14T03:41:50;101631.00;;;12.00
25514;BMP180;48128;54.242;10.280;2023-06-14T03:44:18;101634.00;;;12.00
25514;BMP180;48128;54.242;10.280;2023-06-14T03:46:45;101639.00;;;12.00
25514;BMP180;48128;54.242;10.280;2023-06-14T03:49:13;101627.00;;;12.10
25514;BMP180;48128;54.242;10.280;2023-06-14T03:51:40;101637.00;;;12.10
25514;BMP180;48128;54.242;10.280;2023-06-14T03:54:07;101633.00;;;12.10
25514;BMP180;48128;54.242;10.280;2023-06-14T03:56:37;101643.00;;;12.10
25514;BMP180;48128;54.242;10.280;2023-06-14T03:59:04;101653.00;;;12.00
25514;BMP180;48128;54.242;10.280;2023-06-14T04:01:31;101658.00;;;12.10
25514;BMP180;48128;54.242;10.280;2023-06-14T04:03:58;101662.00;;;12.10
25514;BMP180;48128;54.242;10.280;2023-06-14T04:06:25;101652.00;;;12.10
25514;BMP180;48128;54.242;10.280;2023-06-14T04:08:59;101670.00;;;12.10
25514;BMP180;48128;54.242;10.280;2023-06-14T04:11:31;101659.00;;;12.10
25514;BMP180;48128;54.242;10.280;2023-06-14T04:13:58;101659.00;;;12.20
25514;BMP180;48128;54.242;10.280;2023-06-14T04:16:26;101660.00;;;12.20
25514;BMP180;48128;54.242;10.280;2023-06-14T04:18:55;101659.00;;;12.40
25514;BMP180;48128;54.242;10.280;2023-06-14T04:21:22;101668.00;;;12.40
25514;BMP180;48128;54.242;10.280;2023-06-14T04:23:50;101665.00;;;12.30
25514;BMP180;48128;54.242;10.280;2023-06-14T04:26:19;101664.00;;;12.40
25514;BMP180;48128;54.242;10.280;2023-06-14T04:28:49;101665.00;;;12.50
25514;BMP180;48128;54.242;10.280;2023-06-14T04:31:17;101664.00;;;12.60
25514;BMP180;48128;54.242;10.280;2023-06-14T04:33:45;101669.00;;;12.70
25514;BMP180;48128;54.242;10.280;2023-06-14T04:36:13;101664.00;;;12.80
25514;BMP180;48128;54.242;10.280;2023-06-14T04:38:44;101677.00;;;12.90
25514;BMP180;48128;54.242;10.280;2023-06-14T04:41:15;101674.00;;;12.90
25514;BMP180;48128;54.242;10.280;2023-06-14T04:43:43;101682.00;;;12.90
25514;BMP180;48128;54.242;10.280;2023-06-14T04:46:15;101681.00;;;12.90
25514;BMP180;48128;54.242;10.280;2023-06-14T04:48:44;101681.00;;;13.00
25514;BMP180;48128;54.242;10.280;2023-06-14T04:51:14;101677.00;;;13.20
25514;BMP180;48128;54.242;10.280;2023-06-14T04:53:42;101683.00;;;13.50
25514;BMP180;48128;54.242;10.280;2023-06-14T04:56:10;101680.00;;;13.70
25514;BMP180;48128;54.242;10.280;2023-06-14T04:58:37;101686.00;;;13.70
25514;BMP180;48128;54.242;10.280;2023-06-14T05:01:05;101693.00;;;13.80
25514;BMP180;48128;54.242;10.280;2023-06-14T05:03:32;101692.00;;;13.90
25514;BMP180;48128;54.242;10.280;2023-06-14T05:06:01;101686.00;;;14.00
25514;BMP180;48128;54.242;10.280;2023-06-14T05:08:28;101689.00;;;14.10
25514;BMP180;48128;54.242;10.280;2023-06-14T05:10:54;101701.00;;;14.20
25514;BMP180;48128;54.242;10.280;2023-06-14T05:13:21;101696.00;;;14.30
25514;BMP180;48128;54.242;10.280;2023-06-14T05:15:49;101688.00;;;14.40
25514;BMP180;48128;54.242;10.280;2023-06-14T05:18:16;101704.00;;;14.40
25514;BMP180;48128;54.242;10.280;2023-06-14T05:20:43;101703.00;;;14.50
25514;BMP180;48128;54.242;10.280;2023-06-14T05:23:10;101708.00;;;14.40
25514;BMP180;48128;54.242;10.280;2023-06-14T05:25:45;101698.00;;;14.40
25514;BMP180;48128;54.242;10.280;2023-06-14T05:28:13;101700.00;;;14.60
25514;BMP180;48128;54.242;10.280;2023-06-14T05:30:40;101693.00;;;14.60
25514;BMP180;48128;54.242;10.280;2023-06-14T05:33:07;101705.00;;;14.70
25514;BMP180;48128;54.242;10.280;2023-06-14T05:35:34;101710.00;;;14.80
25514;BMP180;48128;54.242;10.280;2023-06-14T05:38:01;101707.00;;;14.80
25514;BMP180;48128;54.242;10.280;2023-06-14T05:40:28;101713.00;;;14.80
25514;BMP180;48128;54.242;10.280;2023-06-14T05:42:55;101716.00;;;14.90
25514;BMP180;48128;54.242;10.280;2023-06-14T05:45:22;101716.00;;;15.00
25514;BMP180;48128;54.242;10.280;2023-06-14T05:47:49;101724.00;;;15.10
25514;BMP180;48128;54.242;10.280;2023-06-14T05:50:17;101722.00;;;15.20
25514;BMP180;48128;54.242;10.280;2023-06-14T05:52:44;101732.00;;;15.20
25514;BMP180;48128;54.242;10.280;2023-06-14T05:55:11;101728.00;;;15.20
25514;BMP180;48128;54.242;10.280;2023-06-14T05:57:40;101729.00;;;15.20
25514;BMP180;48128;54.242;10.280;2023-06-14T06:00:07;101724.00;;;15.20
25514;BMP180;48128;54.242;10.280;2023-06-14T06:02:38;101729.00;;;15.10
25514;BMP180;48128;54.242;10.280;2023-06-14T06:05:05;101730.00;;;15.10
25514;BMP180;48128;54.242;10.280;2023-06-14T06:07:32;101722.00;;;15.20
25514;BMP180;48128;54.242;10.280;2023-06-14T06:10:04;101724.00;;;15.20
25514;BMP180;48128;54.242;10.280;2023-06-14T06:12:32;101722.00;;;15.30
25514;BMP180;48128;54.242;10.280;2023-06-14T06:14:59;101727.00;;;15.40
25514;BMP180;48128;54.242;10.280;2023-06-14T06:17:26;101737.00;;;15.50
25514;BMP180;48128;54.242;10.280;2023-06-14T06:20:08;101735.00;;;15.70
25514;BMP180;48128;54.242;10.280;2023-06-14T06:22:36;101736.00;;;15.80
25514;BMP180;48128;54.242;10.280;2023-06-14T06:25:03;101749.00;;;15.80
25514;BMP180;48128;54.242;10.280;2023-06-14T06:27:30;101751.00;;;15.80
25514;BMP180;48128;54.242;10.280;2023-06-14T06:29:57;101752.00;;;15.80
25514;BMP180;48128;54.242;10.280;2023-06-14T06:32:24;101739.00;;;15.80
25514;BMP180;48128;54.242;10.280;2023-06-14T06:34:51;101737.00;;;15.80
25514;BMP180;48128;54.242;10.280;2023-06-14T06:37:19;101744.00;;;15.90
25514;BMP180;48128;54.242;10.280;2023-06-14T06:39:46;101737.00;;;15.90
25514;BMP180;48128;54.242;10.280;2023-06-14T06:42:14;101728.00;;;15.90
25514;BMP180;48128;54.242;10.280;2023-06-14T06:44:41;101737.00;;;16.00
25514;BMP180;48128;54.242;10.280;2023-06-14T06:47:08;101726.00;;;16.00
25514;BMP180;48128;54.242;10.280;2023-06-14T06:49:37;101733.00;;;16.10
25514;BMP180;48128;54.242;10.280;2023-06-14T06:52:05;101739.00;;;16.10
25514;BMP180;48128;54.242;10.280;2023-06-14T06:54:33;101742.00;;;16.20
25514;BMP180;48128;54.242;10.280;2023-06-14T06:57:00;101745.00;;;16.20
25514;BMP180;48128;54.242;10.280;2023-06-14T06:59:28;101752.00;;;16.30
25514;BMP180;48128;54.242;10.280;2023-06-14T07:01:55;101756.00;;;16.40
25514;BMP180;48128;54.242;10.280;2023-06-14T07:04:22;101754.00;;;16.50
25514;BMP180;48128;54.242;10.280;2023-06-14T07:06:49;101769.00;;;16.50
25514;BMP180;48128;54.242;10.280;2023-06-14T07:09:17;101761.00;;;16.60
25514;BMP180;48128;54.242;10.280;2023-06-14T07:11:45;101782.00;;;16.80
25514;BMP180;48128;54.242;10.280;2023-06-14T07:14:12;101785.00;;;17.00
25514;BMP180;48128;54.242;10.280;2023-06-14T07:16:39;101787.00;;;17.20
25514;BMP180;48128;54.242;10.280;2023-06-14T07:19:08;101798.00;;;17.30
25514;BMP180;48128;54.242;10.280;2023-06-14T07:21:36;101808.00;;;17.40
25514;BMP180;48128;54.242;10.280;2023-06-14T07:24:06;101794.00;;;17.40
25514;BMP180;48128;54.242;10.280;2023-06-14T07:26:34;101809.00;;;17.50
25514;BMP180;48128;54.242;10.280;2023-06-14T07:29:02;101811.00;;;17.60
25514;BMP180;48128;54.242;10.280;2023-06-14T07:31:29;101822.00;;;17.70
25514;BMP180;48128;54.242;10.280;2023-06-14T07:33:56;101817.00;;;17.80
25514;BMP180;48128;54.242;10.280;2023-06-14T17:39:02;101757.00;;;20.10
25514;BMP180;48128;54.242;10.280;2023-06-14T17:41:29;101751.00;;;20.00
25514;BMP180;48128;54.242;10.280;2023-06-14T17:43:59;101758.00;;;19.90
25514;BMP180;48128;54.242;10.280;2023-06-14T17:46:26;101750.00;;;19.80
25514;BMP180;48128;54.242;10.280;2023-06-14T17:48:53;101759.00;;;19.80
25514;BMP180;48128;54.242;10.280;2023-06-14T17:51:20;101757.00;;;19.80
25514;BMP180;48128;54.242;10.280;2023-06-14T17:53:48;101754.00;;;19.80
25514;BMP180;48128;54.242;10.280;2023-06-14T17:56:15;101760.00;;;19.70
25514;BMP180;48128;54.242;10.280;2023-06-14T18:02:20;101768.00;;;19.60
25514;BMP180;48128;54.242;10.280;2023-06-14T18:04:46;101765.00;;;19.60
25514;BMP180;48128;54.242;10.280;2023-06-14T18:07:13;101773.00;;;19.50
25514;BMP180;48128;54.242;10.280;2023-06-14T18:09:41;101764.00;;;19.50
25514;BMP180;48128;54.242;10.280;2023-06-14T18:12:08;101766.00;;;19.40
25514;BMP180;48128;54.242;10.280;2023-06-14T18:14:36;101767.00;;;19.40
25514;BMP180;48128;54.242;10.280;2023-06-14T18:17:03;101772.00;;;19.40
25514;BMP180;48128;54.242;10.280;2023-06-14T18:19:30;101779.00;;;19.30
25514;BMP180;48128;54.242;10.280;2023-06-14T18:21:57;101775.00;;;19.30
25514;BMP180;48128;54.242;10.280;2023-06-14T18:24:24;101784.00;;;19.30
25514;BMP180;48128;54.242;10.280;2023-06-14T18:26:52;101763.00;;;19.30
25514;BMP180;48128;54.242;10.280;2023-06-14T18:29:19;101762.00;;;19.20
25514;BMP180;48128;54.242;10.280;2023-06-14T18:31:46;101752.00;;;19.20
25514;BMP180;48128;54.242;10.280;2023-06-14T18:34:13;101753.00;;;19.10
25514;BMP180;48128;54.242;10.280;2023-06-14T18:36:40;101759.00;;;19.00
25514;BMP180;48128;54.242;10.280;2023-06-14T18:39:10;101756.00;;;19.00
25514;BMP180;48128;54.242;10.280;2023-06-14T18:41:37;101771.00;;;18.90
25514;BMP180;48128;54.242;10.280;2023-06-14T18:44:05;101763.00;;;18.90
25514;BMP180;48128;54.242;10.280;2023-06-14T18:46:32;101756.00;;;18.80
25514;BMP180;48128;54.242;10.280;2023-06-14T18:48:59;101749.00;;;18.80
25514;BMP180;48128;54.242;10.280;2023-06-14T18:51:27;101751.00;;;18.70
25514;BMP180;48128;54.242;10.280;2023-06-14T18:53:54;101743.00;;;18.60
25514;BMP180;48128;54.242;10.280;2023-06-14T18:56:22;101740.00;;;18.50
25514;BMP180;48128;54.242;10.280;2023-06-14T18:58:49;101750.00;;;18.30
25514;BMP180;48128;54.242;10.280;2023-06-14T19:01:16;101741.00;;;18.20
25514;BMP180;48128;54.242;10.280;2023-06-14T19:03:43;101732.00;;;18.10
25514;BMP180;48128;54.242;10.280;2023-06-14T19:06:10;101725.00;;;18.00
25514;BMP180;48128;54.242;10.280;2023-06-14T19:08:36;101716.00;;;17.90
25514;BMP180;48128;54.242;10.280;2023-06-14T19:11:05;101715.00;;;17.80
25514;BMP180;48128;54.242;10.280;2023-06-14T19:13:36;101708.00;;;17.60
25514;BMP180;48128;54.242;10.280;2023-06-14T19:16:03;101713.00;;;17.50
25514;BMP180;48128;54.242;10.280;2023-06-14T19:18:30;101706.00;;;17.40
25514;BMP180;48128;54.242;10.280;2023-06-14T19:20:57;101705.00;;;17.30
25514;BMP180;48128;54.242;10.280;2023-06-14T19:23:24;101708.00;;;17.20
25514;BMP180;48128;54.242;10.280;2023-06-14T19:25:51;101699.00;;;17.10
25514;BMP180;48128;54.242;10.280;2023-06-14T19:28:18;101705.00;;;17.00
25514;BMP180;48128;54.242;10.280;2023-06-14T19:30:51;101707.00;;;16.90
25514;BMP180;48128;54.242;10.280;2023-06-14T19:33:18;101696.00;;;16.80
25514;BMP180;48128;54.242;10.280;2023-06-14T19:35:45;101703.00;;;16.70
25514;BMP180;48128;54.242;10.280;2023-06-14T19:38:12;101703.00;;;16.60
25514;BMP180;48128;54.242;10.280;2023-06-14T19:40:40;101713.00;;;16.40
25514;BMP180;48128;54.242;10.280;2023-06-14T19:43:07;101713.00;;;16.30
25514;BMP180;48128;54.242;10.280;2023-06-14T19:45:34;101710.00;;;16.20
25514;BMP180;48128;54.242;10.280;2023-06-14T19:48:01;101706.00;;;16.10
25514;BMP180;48128;54.242;10.280;2023-06-14T19:50:46;101702.00;;;15.90
25514;BMP180;48128;54.242;10.280;2023-06-14T19:53:16;101712.00;;;15.80
25514;BMP180;48128;54.242;10.280;2023-06-14T19:55:43;101707.00;;;15.80
25514;BMP180;48128;54.242;10.280;2023-06-14T19:58:10;101693.00;;;15.70
25514;BMP180;48128;54.242;10.280;2023-06-14T20:00:37;101699.00;;;15.60
25514;BMP180;48128;54.242;10.280;2023-06-14T20:03:04;101693.00;;;15.50
25514;BMP180;48128;54.242;10.280;2023-06-14T20:05:31;101684.00;;;15.40
25514;BMP180;48128;54.242;10.280;2023-06-14T20:07:58;101698.00;;;15.30
25514;BMP180;48128;54.242;10.280;2023-06-14T20:10:26;101691.00;;;15.20
25514;BMP180;48128;54.242;10.280;2023-06-14T20:12:53;101676.00;;;15.10
25514;BMP180;48128;54.242;10.280;2023-06-14T20:15:21;101678.00;;;15.10
25514;BMP180;48128;54.242;10.280;2023-06-14T20:17:51;101668.00;;;15.00
25514;BMP180;48128;54.242;10.280;2023-06-14T20:20:18;101678.00;;;15.00
25514;BMP180;48128;54.242;10.280;2023-06-14T20:22:45;101682.00;;;14.90
25514;BMP180;48128;54.242;10.280;2023-06-14T20:25:12;101677.00;;;14.80
25514;BMP180;48128;54.242;10.280;2023-06-14T20:27:39;101677.00;;;14.70
25514;BMP180;48128;54.242;10.280;2023-06-14T20:30:07;101689.00;;;14.60
25514;BMP180;48128;54.242;10.280;2023-06-14T20:32:34;101685.00;;;14.50
25514;BMP180;48128;54.242;10.280;2023-06-14T20:35:01;101672.00;;;14.40
25514;BMP180;48128;54.242;10.280;2023-06-14T20:37:28;101667.00;;;14.30
25514;BMP180;48128;54.242;10.280;2023-06-14T20:39:55;101667.00;;;14.30
25514;BMP180;48128;54.242;10.280;2023-06-14T20:42:32;101675.00;;;14.10
25514;BMP180;48128;54.242;10.280;2023-06-14T20:45:04;101682.00;;;14.00
25514;BMP180;48128;54.242;10.280;2023-06-14T20:47:31;101665.00;;;14.00
25514;BMP180;48128;54.242;10.280;2023-06-14T20:49:58;101673.00;;;13.90
25514;BMP180;48128;54.242;10.280;2023-06-14T20:52:25;101675.00;;;13.80
25514;BMP180;48128;54.242;10.280;2023-06-14T20:54:53;101679.00;;;13.80
25514;BMP180;48128;54.242;10.280;2023-06-14T20:57:22;101675.00;;;13.70
25514;BMP180;48128;54.242;10.280;2023-06-14T20:59:49;101682.00;;;13.60
25514;BMP180;48128;54.242;10.280;2023-06-14T21:02:16;101674.00;;;13.60
25514;BMP180;48128;54.242;10.280;2023-06-14T21:04:44;101682.00;;;13.50
25514;BMP180;48128;54.242;10.280;2023-06-14T21:07:12;101685.00;;;13.50
25514;BMP180;48128;54.242;10.280;2023-06-14T21:09:39;101681.00;;;13.40
25514;BMP180;48128;54.242;10.280;2023-06-14T21:12:09;101680.00;;;13.40
25514;BMP180;48128;54.242;10.280;2023-06-14T21:14:38;101672.00;;;13.30
25514;BMP180;48128;54.242;10.280;2023-06-14T21:17:06;101671.00;;;13.30
25514;BMP180;48128;54.242;10.280;2023-06-14T21:19:35;101672.00;;;13.30
25514;BMP180;48128;54.242;10.280;2023-06-14T21:22:04;101666.00;;;13.30
25514;BMP180;48128;54.242;10.280;2023-06-14T21:24:31;101666.00;;;13.20
25514;BMP180;48128;54.242;10.280;2023-06-14T21:26:58;101674.00;;;13.20
25514;BMP180;48128;54.242;10.280;2023-06-14T21:29:25;101670.00;;;13.20
25514;BMP180;48128;54.242;10.280;2023-06-14T21:31:52;101664.00;;;13.10
25514;BMP180;48128;54.242;10.280;2023-06-14T21:34:19;101668.00;;;13.10
25514;BMP180;48128;54.242;10.280;2023-06-14T21:36:46;101657.00;;;13.00
25514;BMP180;48128;54.242;10.280;2023-06-14T21:39:13;101667.00;;;12.90
25514;BMP180;48128;54.242;10.280;2023-06-14T21:41:40;101664.00;;;12.90
25514;BMP180;48128;54.242;10.280;2023-06-14T21:44:07;101668.00;;;12.80
25514;BMP180;48128;54.242;10.280;2023-06-14T21:46:34;101667.00;;;12.80
25514;BMP180;48128;54.242;10.280;2023-06-14T21:49:01;101671.00;;;12.80
25514;BMP180;48128;54.242;10.280;2023-06-14T21:51:29;101669.00;;;12.70
25514;BMP180;48128;54.242;10.280;2023-06-14T21:53:56;101658.00;;;12.60
25514;BMP180;48128;54.242;10.280;2023-06-14T21:56:23;101656.00;;;12.60
25514;BMP180;48128;54.242;10.280;2023-06-14T21:58:50;101673.00;;;12.60
25514;BMP180;48128;54.242;10.280;2023-06-14T22:01:17;101666.00;;;12.50
25514;BMP180;48128;54.242;10.280;2023-06-14T22:06:19;101671.00;;;12.40
25514;BMP180;48128;54.242;10.280;2023-06-14T22:08:46;101672.00;;;12.30
25514;BMP180;48128;54.242;10.280;2023-06-14T22:11:13;101675.00;;;12.20
25514;BMP180;48128;54.242;10.280;2023-06-14T22:13:40;101668.00;;;12.20
25514;BMP180;48128;54.242;10.280;2023-06-14T22:16:10;101667.00;;;12.10
25514;BMP180;48128;54.242;10.280;2023-06-14T22:18:37;101678.00;;;12.10
25514;BMP180;48128;54.242;10.280;2023-06-14T22:21:04;101675.00;;;12.00
25514;BMP180;48128;54.242;10.280;2023-06-14T22:23:31;101673.00;;;12.00
25514;BMP180;48128;54.242;10.280;2023-06-14T22:26:05;101679.00;;;12.00
25514;BMP180;48128;54.242;10.280;2023-06-14T22:28:35;101671.00;;;12.00
25514;BMP180;48128;54.242;10.280;2023-06-14T22:31:12;101680.00;;;11.90
25514;BMP180;48128;54.242;10.280;2023-06-14T22:33:41;101684.00;;;11.90
25514;BMP180;48128;54.242;10.280;2023-06-14T22:36:09;101688.00;;;11.80
25514;BMP180;48128;54.242;10.280;2023-06-14T22:38:37;101682.00;;;11.80
25514;BMP180;48128;54.242;10.280;2023-06-14T22:41:06;101697.00;;;11.80
25514;BMP180;48128;54.242;10.280;2023-06-14T22:43:37;101683.00;;;11.70
25514;BMP180;48128;54.242;10.280;2023-06-14T22:46:06;101698.00;;;11.70
25514;BMP180;48128;54.242;10.280;2023-06-14T22:48:37;101698.00;;;11.70
25514;BMP180;48128;54.242;10.280;2023-06-14T22:51:18;101692.00;;;11.60
25514;BMP180;48128;54.242;10.280;2023-06-14T22:53:46;101689.00;;;11.60
25514;BMP180;48128;54.242;10.280;2023-06-14T22:56:14;101688.00;;;11.60
25514;BMP180;48128;54.242;10.280;2023-06-14T22:58:42;101689.00;;;11.60
25514;BMP180;48128;54.242;10.280;2023-06-14T23:01:12;101684.00;;;11.60
25514;BMP180;48128;54.242;10.280;2023-06-14T23:03:42;101689.00;;;11.50
25514;BMP180;48128;54.242;10.280;2023-06-14T23:06:14;101676.00;;;11.50
25514;BMP180;48128;54.242;10.280;2023-06-14T23:08:41;101680.00;;;11.50
25514;BMP180;48128;54.242;10.280;2023-06-14T23:11:12;101665.00;;;11.50
25514;BMP180;48128;54.242;10.280;2023-06-14T23:13:40;101672.00;;;11.40
25514;BMP180;48128;54.242;10.280;2023-06-14T23:16:08;101674.00;;;11.40
25514;BMP180;48128;54.242;10.280;2023-06-14T23:18:35;101672.00;;;11.40
25514;BMP180;48128;54.242;10.280;2023-06-14T23:21:03;101678.00;;;11.40
25514;BMP180;48128;54.242;10.280;2023-06-14T23:23:32;101674.00;;;11.30
25514;BMP180;48128;54.242;10.280;2023-06-14T23:26:02;101675.00;;;11.30
25514;BMP180;48128;54.242;10.280;2023-06-14T23:28:32;101673.00;;;11.20
25514;BMP180;48128;54.242;10.280;2023-06-14T23:31:00;101673.00;;;11.20
25514;BMP180;48128;54.242;10.280;2023-06-14T23:33:28;101684.00;;;11.10
25514;BMP180;48128;54.242;10.280;2023-06-14T23:35:56;101685.00;;;11.10
25514;BMP180;48128;54.242;10.280;2023-06-14T23:38:24;101687.00;;;11.10
25514;BMP180;48128;54.242;10.280;2023-06-14T23:40:51;101676.00;;;11.00
25514;BMP180;48128;54.242;10.280;2023-06-14T23:43:19;101685.00;;;11.00
25514;BMP180;48128;54.242;10.280;2023-06-14T23:45:46;101687.00;;;11.00
25514;BMP180;48128;54.242;10.280;2023-06-14T23:48:13;101679.00;;;10.90
25514;BMP180;48128;54.242;10.280;2023-06-14T23:50:41;101677.00;;;10.90
25514;BMP180;48128;54.242;10.280;2023-06-14T23:53:08;101676.00;;;10.90
25514;BMP180;48128;54.242;10.280;2023-06-14T23:55:35;101678.00;;;10.90
25514;BMP180;48128;54.242;10.280;2023-06-14T23:58:04;101681.00;;;10.80
